Buynaksk, Russia
Current Conditions -  °F | °C
As of 3:00 AM on Wednesday 22 Oct 2014 (Local Time) from URML Reporting Station
Clear Clear  
Wind Chill: 38°   Ceiling: Unl
Heat Index: 43°   Visibility: 6mi
Dew Point: 32°   Wind: 9mph
Humidity: 66%   Direction: 210°SSW
Pressure: 29.88"   Gusts: NA
Location:  42.83°N, 47.12°E
Report Text: URML 220000Z 21004MPS 9999 SKC 06/00 Q1012 NOSIG RMKQFE758/1011
Loading
Personal Weather Stations






























Interactive Weather Map
Tropical Storm Tracking
New forecast layout! Learn more

10-Day Weather Forecast

Advertisements
Track Severe Weather on mobile